Iver Accord — ZDNR3 — position and weather

sailwx.info

Track history (hours):
 
Tides and Currents Weather Stations Pressure Air Temp Water Temp Dewpoint Dewpoint Depression Visibility Wind Speed Wind Dir Waves Ship Positions

Iver Accord

Last reported at 2017-Nov-19 20:06 UTC. Time now 2017-Nov-23 07:55 UTC.
Position N 39°44' W 009°51'.

Length 99 m; draft 5.1 m.

Type: Tanker. MMSI: 236630000.

Date/timePositionNaut miles runAvg speedWind from/ knotsBaromVisibWave heightAir tempDewpointWater temp
2017-Nov-19 20:06N 39°44' W 009°51'110.8
2017-Nov-19 20:00N 39°43' W 009°51'1310.9
2017-Nov-19 18:50N 39°30' W 009°51'711.0
2017-Nov-19 18:15N 39°24' W 009°51'311.3
2017-Nov-19 17:57N 39°21' W 009°51'511.4
2017-Nov-19 17:30N 39°15' W 009°51'611.5
2017-Nov-19 17:00N 39°10' W 009°51'611.2
2017-Nov-19 16:30N 39°04' W 009°51'611.2
2017-Nov-19 16:00N 38°59' W 009°51'511.0
2017-Nov-19 15:30N 38°53' W 009°51'611.3
2017-Nov-19 15:00N 38°48' W 009°52'611.2
2017-Nov-19 14:30N 38°42' W 009°51'611.4
2017-Nov-19 14:00N 38°36' W 009°50'611.2
2017-Nov-19 13:30N 38°31' W 009°48'511.0
2017-Nov-19 13:00N 38°26' W 009°46'510.9
2017-Nov-19 12:30N 38°20' W 009°45'510.6
2017-Nov-19 12:00N 38°15' W 009°43'510.9
2017-Nov-19 11:30N 38°10' W 009°42'611.3
2017-Nov-19 11:00N 38°04' W 009°40'611.2
2017-Nov-19 10:30N 37°59' W 009°39'611.4
2017-Nov-19 10:00N 37°53' W 009°37'611.4
2017-Nov-19 09:30N 37°48' W 009°35'611.2
2017-Nov-19 09:00N 37°42' W 009°34'611.0
2017-Nov-19 08:30N 37°37' W 009°32'611.3
2017-Nov-19 07:59N 37°31' W 009°30'611.3
2017-Nov-19 07:28N 37°25' W 009°29'511.5
2017-Nov-19 07:00N 37°20' W 009°27'611.2
2017-Nov-19 06:30N 37°15' W 009°26'511.1
2017-Nov-19 06:00N 37°09' W 009°24'611.1
2017-Nov-19 05:30N 37°04' W 009°23'611.2
2017-Nov-19 04:59N 36°58' W 009°21'711.2
2017-Nov-19 04:20N 36°52' W 009°18'611.4
2017-Nov-19 03:49N 36°47' W 009°12'411.2
2017-Nov-19 03:30N 36°45' W 009°09'3211.7
2017-Nov-19 00:46N 36°35' W 008°32'3411.6
2017-Nov-18 21:53N 36°24' W 007°52'11911.4
2017-Nov-18 11:25N 35°59' W 005°28'4 9.7
2017-Nov-18 11:00N 35°58' W 005°23'510.1
2017-Nov-18 10:30N 35°55' W 005°19'1 1.4
2017-Nov-18 09:59N 35°54' W 005°19'0 0.0
2017-Nov-18 09:23N 35°54' W 005°19'0 0.0
2017-Nov-18 08:59N 35°54' W 005°19'0 0.0
2017-Nov-18 08:29N 35°54' W 005°19'0 0.0
2017-Nov-18 07:59N 35°54' W 005°19'0 0.0
2017-Nov-18 07:29N 35°54' W 005°19'0 0.0
2017-Nov-18 06:59N 35°54' W 005°19'0 0.0
2017-Nov-18 06:29N 35°54' W 005°19'0 0.0
2017-Nov-18 05:59N 35°54' W 005°19'0 0.1
2017-Nov-18 05:31N 35°54' W 005°19'1 2.2
2017-Nov-18 05:01N 35°55' W 005°19'2 4.4
2017-Nov-18 04:31N 35°57' W 005°21'510.9
2017-Nov-18 04:01N 35°57' W 005°27'  
2017-Nov-15 02:06N 35°57' W 005°35'1 9.0
2017-Nov-15 02:00N 35°58' W 005°34'5 9.9
2017-Nov-15 01:30N 35°59' W 005°28'5 9.5
2017-Nov-15 01:00N 36°01' W 005°23'5 9.1
2017-Nov-15 00:30N 36°02' W 005°17'  
2017-Nov-09 21:32N 37°27' W 000°53'111.6
2017-Nov-09 21:29N 37°26' W 000°52'611.7
2017-Nov-09 21:00N 37°24' W 000°46'  
Track history (hours):
 
Tides and Currents Weather Stations Pressure Air Temp Water Temp Dewpoint Dewpoint Depression Visibility Wind Speed Wind Dir Waves Ship Positions

Iver Accord

Last reported at 2017-Nov-19 20:06 UTC. Time now 2017-Nov-23 07:55 UTC.
Position N 39°44' W 009°51'.

Length 99 m; draft 5.1 m.

Type: Tanker. MMSI: 236630000.

Date/timePositionNaut miles runAvg speedWind from/ knotsBaromVisibWave heightAir tempDewpointWater temp
2017-Nov-19 20:06N 39°44' W 009°51'110.8
2017-Nov-19 20:00N 39°43' W 009°51'1310.9
2017-Nov-19 18:50N 39°30' W 009°51'711.0
2017-Nov-19 18:15N 39°24' W 009°51'311.3
2017-Nov-19 17:57N 39°21' W 009°51'511.4
2017-Nov-19 17:30N 39°15' W 009°51'611.5
2017-Nov-19 17:00N 39°10' W 009°51'611.2
2017-Nov-19 16:30N 39°04' W 009°51'611.2
2017-Nov-19 16:00N 38°59' W 009°51'511.0
2017-Nov-19 15:30N 38°53' W 009°51'611.3
2017-Nov-19 15:00N 38°48' W 009°52'611.2
2017-Nov-19 14:30N 38°42' W 009°51'611.4
2017-Nov-19 14:00N 38°36' W 009°50'611.2
2017-Nov-19 13:30N 38°31' W 009°48'511.0
2017-Nov-19 13:00N 38°26' W 009°46'510.9
2017-Nov-19 12:30N 38°20' W 009°45'510.6
2017-Nov-19 12:00N 38°15' W 009°43'510.9
2017-Nov-19 11:30N 38°10' W 009°42'611.3
2017-Nov-19 11:00N 38°04' W 009°40'611.2
2017-Nov-19 10:30N 37°59' W 009°39'611.4
2017-Nov-19 10:00N 37°53' W 009°37'611.4
2017-Nov-19 09:30N 37°48' W 009°35'611.2
2017-Nov-19 09:00N 37°42' W 009°34'611.0
2017-Nov-19 08:30N 37°37' W 009°32'611.3
2017-Nov-19 07:59N 37°31' W 009°30'611.3
2017-Nov-19 07:28N 37°25' W 009°29'511.5
2017-Nov-19 07:00N 37°20' W 009°27'611.2
2017-Nov-19 06:30N 37°15' W 009°26'511.1
2017-Nov-19 06:00N 37°09' W 009°24'611.1
2017-Nov-19 05:30N 37°04' W 009°23'611.2
2017-Nov-19 04:59N 36°58' W 009°21'711.2
2017-Nov-19 04:20N 36°52' W 009°18'611.4
2017-Nov-19 03:49N 36°47' W 009°12'411.2
2017-Nov-19 03:30N 36°45' W 009°09'3211.7
2017-Nov-19 00:46N 36°35' W 008°32'3411.6
2017-Nov-18 21:53N 36°24' W 007°52'11911.4
2017-Nov-18 11:25N 35°59' W 005°28'4 9.7
2017-Nov-18 11:00N 35°58' W 005°23'510.1
2017-Nov-18 10:30N 35°55' W 005°19'1 1.4
2017-Nov-18 09:59N 35°54' W 005°19'0 0.0
2017-Nov-18 09:23N 35°54' W 005°19'0 0.0
2017-Nov-18 08:59N 35°54' W 005°19'0 0.0
2017-Nov-18 08:29N 35°54' W 005°19'0 0.0
2017-Nov-18 07:59N 35°54' W 005°19'0 0.0
2017-Nov-18 07:29N 35°54' W 005°19'0 0.0
2017-Nov-18 06:59N 35°54' W 005°19'0 0.0
2017-Nov-18 06:29N 35°54' W 005°19'0 0.0
2017-Nov-18 05:59N 35°54' W 005°19'0 0.1
2017-Nov-18 05:31N 35°54' W 005°19'1 2.2
2017-Nov-18 05:01N 35°55' W 005°19'2 4.4
2017-Nov-18 04:31N 35°57' W 005°21'510.9
2017-Nov-18 04:01N 35°57' W 005°27'  
2017-Nov-15 02:06N 35°57' W 005°35'1 9.0
2017-Nov-15 02:00N 35°58' W 005°34'5 9.9
2017-Nov-15 01:30N 35°59' W 005°28'5 9.5
2017-Nov-15 01:00N 36°01' W 005°23'5 9.1
2017-Nov-15 00:30N 36°02' W 005°17'  
2017-Nov-09 21:32N 37°27' W 000°53'111.6
2017-Nov-09 21:29N 37°26' W 000°52'611.7
2017-Nov-09 21:00N 37°24' W 000°46'  

Dump ship's entire track history